sensor_id;sensor_type;location;lat;lon;timestamp;P1;durP1;ratioP1;P2;durP2;ratioP2
43248;SDS011;29216;51.248;6.808;2023-12-04T00:00:08;17.70;;;11.70;;
43248;SDS011;29216;51.248;6.808;2023-12-04T00:02:34;20.48;;;10.65;;
43248;SDS011;29216;51.248;6.808;2023-12-04T00:05:00;18.93;;;11.33;;
43248;SDS011;29216;51.248;6.808;2023-12-04T00:07:26;21.13;;;10.70;;
43248;SDS011;29216;51.248;6.808;2023-12-04T00:09:52;17.70;;;11.47;;
43248;SDS011;29216;51.248;6.808;2023-12-04T00:12:18;19.23;;;11.00;;
43248;SDS011;29216;51.248;6.808;2023-12-04T00:14:45;18.67;;;10.70;;
43248;SDS011;29216;51.248;6.808;2023-12-04T00:17:11;18.40;;;10.90;;
43248;SDS011;29216;51.248;6.808;2023-12-04T00:19:37;18.10;;;11.67;;
43248;SDS011;29216;51.248;6.808;2023-12-04T00:22:03;16.27;;;10.60;;
43248;SDS011;29216;51.248;6.808;2023-12-04T00:24:29;19.17;;;11.07;;
43248;SDS011;29216;51.248;6.808;2023-12-04T00:26:55;20.53;;;11.00;;
43248;SDS011;29216;51.248;6.808;2023-12-04T00:29:21;17.80;;;11.03;;
43248;SDS011;29216;51.248;6.808;2023-12-04T00:31:47;19.17;;;10.57;;
43248;SDS011;29216;51.248;6.808;2023-12-04T00:34:13;16.90;;;10.07;;
43248;SDS011;29216;51.248;6.808;2023-12-04T00:36:39;17.53;;;10.57;;
43248;SDS011;29216;51.248;6.808;2023-12-04T00:39:05;16.53;;;9.60;;
43248;SDS011;29216;51.248;6.808;2023-12-04T00:41:31;17.63;;;10.40;;
43248;SDS011;29216;51.248;6.808;2023-12-04T00:43:57;17.93;;;9.97;;
43248;SDS011;29216;51.248;6.808;2023-12-04T00:46:23;16.97;;;9.67;;
43248;SDS011;29216;51.248;6.808;2023-12-04T00:48:49;16.57;;;9.67;;
43248;SDS011;29216;51.248;6.808;2023-12-04T00:51:15;15.97;;;9.80;;
43248;SDS011;29216;51.248;6.808;2023-12-04T00:53:41;15.77;;;9.67;;
43248;SDS011;29216;51.248;6.808;2023-12-04T00:56:07;17.47;;;9.83;;
43248;SDS011;29216;51.248;6.808;2023-12-04T00:58:33;14.40;;;9.37;;
43248;SDS011;29216;51.248;6.808;2023-12-04T01:00:59;15.77;;;9.23;;
43248;SDS011;29216;51.248;6.808;2023-12-04T01:03:25;14.53;;;9.33;;
43248;SDS011;29216;51.248;6.808;2023-12-04T01:05:51;14.67;;;8.83;;
43248;SDS011;29216;51.248;6.808;2023-12-04T01:08:17;15.70;;;9.87;;
43248;SDS011;29216;51.248;6.808;2023-12-04T01:10:43;15.47;;;8.93;;
43248;SDS011;29216;51.248;6.808;2023-12-04T01:13:09;13.50;;;8.40;;
43248;SDS011;29216;51.248;6.808;2023-12-04T01:15:35;17.57;;;9.77;;
43248;SDS011;29216;51.248;6.808;2023-12-04T01:18:01;15.13;;;9.03;;
43248;SDS011;29216;51.248;6.808;2023-12-04T01:20:27;15.30;;;9.27;;
43248;SDS011;29216;51.248;6.808;2023-12-04T01:22:53;16.83;;;9.63;;
43248;SDS011;29216;51.248;6.808;2023-12-04T01:25:19;15.37;;;9.60;;
43248;SDS011;29216;51.248;6.808;2023-12-04T01:27:45;16.17;;;9.53;;
43248;SDS011;29216;51.248;6.808;2023-12-04T01:30:11;15.87;;;9.33;;
43248;SDS011;29216;51.248;6.808;2023-12-04T01:32:39;13.87;;;8.60;;
43248;SDS011;29216;51.248;6.808;2023-12-04T01:35:05;15.53;;;9.47;;
43248;SDS011;29216;51.248;6.808;2023-12-04T01:37:31;17.23;;;9.33;;
43248;SDS011;29216;51.248;6.808;2023-12-04T01:39:57;14.17;;;9.47;;
43248;SDS011;29216;51.248;6.808;2023-12-04T01:42:23;14.13;;;8.50;;
43248;SDS011;29216;51.248;6.808;2023-12-04T01:44:49;15.43;;;9.20;;
43248;SDS011;29216;51.248;6.808;2023-12-04T01:47:15;15.13;;;9.07;;
43248;SDS011;29216;51.248;6.808;2023-12-04T01:49:42;14.13;;;8.63;;
43248;SDS011;29216;51.248;6.808;2023-12-04T01:52:08;14.87;;;9.03;;
43248;SDS011;29216;51.248;6.808;2023-12-04T01:54:34;13.70;;;9.13;;
43248;SDS011;29216;51.248;6.808;2023-12-04T01:57:00;15.27;;;9.30;;
43248;SDS011;29216;51.248;6.808;2023-12-04T01:59:27;14.97;;;8.63;;
43248;SDS011;29216;51.248;6.808;2023-12-04T02:01:53;13.63;;;8.27;;
43248;SDS011;29216;51.248;6.808;2023-12-04T02:04:21;12.73;;;8.33;;
43248;SDS011;29216;51.248;6.808;2023-12-04T02:06:47;13.53;;;8.10;;
43248;SDS011;29216;51.248;6.808;2023-12-04T02:09:13;15.73;;;8.63;;
43248;SDS011;29216;51.248;6.808;2023-12-04T02:11:41;14.07;;;9.03;;
43248;SDS011;29216;51.248;6.808;2023-12-04T02:14:07;14.63;;;8.83;;
43248;SDS011;29216;51.248;6.808;2023-12-04T02:16:35;15.07;;;8.90;;
43248;SDS011;29216;51.248;6.808;2023-12-04T02:19:04;12.60;;;8.13;;
43248;SDS011;29216;51.248;6.808;2023-12-04T02:21:30;14.37;;;8.60;;
43248;SDS011;29216;51.248;6.808;2023-12-04T02:23:56;14.30;;;8.63;;
43248;SDS011;29216;51.248;6.808;2023-12-04T02:26:24;13.13;;;8.07;;
43248;SDS011;29216;51.248;6.808;2023-12-04T02:28:55;13.83;;;8.67;;
43248;SDS011;29216;51.248;6.808;2023-12-04T02:31:21;15.87;;;7.83;;
43248;SDS011;29216;51.248;6.808;2023-12-04T02:33:48;13.90;;;7.83;;
43248;SDS011;29216;51.248;6.808;2023-12-04T02:36:17;14.03;;;8.40;;
43248;SDS011;29216;51.248;6.808;2023-12-04T02:38:45;12.97;;;7.83;;
43248;SDS011;29216;51.248;6.808;2023-12-04T02:41:11;11.73;;;7.68;;
43248;SDS011;29216;51.248;6.808;2023-12-04T02:43:37;14.23;;;8.53;;
43248;SDS011;29216;51.248;6.808;2023-12-04T02:46:03;13.17;;;7.77;;
43248;SDS011;29216;51.248;6.808;2023-12-04T02:48:29;12.80;;;8.13;;
43248;SDS011;29216;51.248;6.808;2023-12-04T02:50:55;13.17;;;7.93;;
43248;SDS011;29216;51.248;6.808;2023-12-04T02:53:21;13.10;;;8.33;;
43248;SDS011;29216;51.248;6.808;2023-12-04T02:55:47;12.52;;;8.60;;
43248;SDS011;29216;51.248;6.808;2023-12-04T02:58:13;14.50;;;8.23;;
43248;SDS011;29216;51.248;6.808;2023-12-04T03:00:39;11.80;;;7.90;;
43248;SDS011;29216;51.248;6.808;2023-12-04T03:03:05;14.70;;;7.47;;
43248;SDS011;29216;51.248;6.808;2023-12-04T03:05:31;13.37;;;8.17;;
43248;SDS011;29216;51.248;6.808;2023-12-04T03:07:57;13.20;;;7.97;;
43248;SDS011;29216;51.248;6.808;2023-12-04T03:10:23;13.20;;;8.20;;
43248;SDS011;29216;51.248;6.808;2023-12-04T03:12:48;12.47;;;8.50;;
43248;SDS011;29216;51.248;6.808;2023-12-04T03:15:14;12.30;;;7.50;;
43248;SDS011;29216;51.248;6.808;2023-12-04T03:17:40;12.57;;;7.77;;
43248;SDS011;29216;51.248;6.808;2023-12-04T03:20:07;10.50;;;7.20;;
43248;SDS011;29216;51.248;6.808;2023-12-04T03:22:33;13.93;;;8.00;;
43248;SDS011;29216;51.248;6.808;2023-12-04T03:24:59;12.60;;;7.90;;
43248;SDS011;29216;51.248;6.808;2023-12-04T03:27:25;12.43;;;7.23;;
43248;SDS011;29216;51.248;6.808;2023-12-04T03:29:51;17.10;;;7.77;;
43248;SDS011;29216;51.248;6.808;2023-12-04T03:32:17;10.50;;;7.20;;
43248;SDS011;29216;51.248;6.808;2023-12-04T03:34:43;12.40;;;7.32;;
43248;SDS011;29216;51.248;6.808;2023-12-04T03:37:09;10.77;;;7.37;;
43248;SDS011;29216;51.248;6.808;2023-12-04T03:39:35;13.93;;;7.63;;
43248;SDS011;29216;51.248;6.808;2023-12-04T03:42:01;11.97;;;7.57;;
43248;SDS011;29216;51.248;6.808;2023-12-04T03:44:27;14.43;;;7.87;;
43248;SDS011;29216;51.248;6.808;2023-12-04T03:46:53;10.90;;;7.00;;
43248;SDS011;29216;51.248;6.808;2023-12-04T03:49:19;13.63;;;6.67;;
43248;SDS011;29216;51.248;6.808;2023-12-04T03:51:45;12.33;;;7.70;;
43248;SDS011;29216;51.248;6.808;2023-12-04T03:54:11;11.00;;;6.77;;
43248;SDS011;29216;51.248;6.808;2023-12-04T03:56:38;11.20;;;6.90;;
43248;SDS011;29216;51.248;6.808;2023-12-04T03:59:05;10.30;;;6.97;;
43248;SDS011;29216;51.248;6.808;2023-12-04T04:01:31;12.47;;;7.40;;
43248;SDS011;29216;51.248;6.808;2023-12-04T04:03:57;11.47;;;6.93;;
43248;SDS011;29216;51.248;6.808;2023-12-04T04:06:23;11.13;;;7.23;;
43248;SDS011;29216;51.248;6.808;2023-12-04T04:08:49;9.17;;;6.13;;
43248;SDS011;29216;51.248;6.808;2023-12-04T04:11:15;11.93;;;7.33;;
43248;SDS011;29216;51.248;6.808;2023-12-04T04:13:41;15.45;;;6.90;;
43248;SDS011;29216;51.248;6.808;2023-12-04T04:16:07;11.07;;;7.17;;
43248;SDS011;29216;51.248;6.808;2023-12-04T04:18:33;11.35;;;7.30;;
43248;SDS011;29216;51.248;6.808;2023-12-04T04:20:59;10.37;;;6.87;;
43248;SDS011;29216;51.248;6.808;2023-12-04T04:23:26;11.20;;;7.30;;
43248;SDS011;29216;51.248;6.808;2023-12-04T04:25:52;10.00;;;6.43;;
43248;SDS011;29216;51.248;6.808;2023-12-04T04:28:18;10.10;;;6.87;;
43248;SDS011;29216;51.248;6.808;2023-12-04T04:30:44;12.87;;;7.03;;
43248;SDS011;29216;51.248;6.808;2023-12-04T04:33:10;12.90;;;7.63;;
43248;SDS011;29216;51.248;6.808;2023-12-04T04:35:36;12.20;;;7.07;;
43248;SDS011;29216;51.248;6.808;2023-12-04T04:38:02;10.60;;;6.37;;
43248;SDS011;29216;51.248;6.808;2023-12-04T04:40:28;10.17;;;6.40;;
43248;SDS011;29216;51.248;6.808;2023-12-04T04:42:54;12.10;;;6.73;;
43248;SDS011;29216;51.248;6.808;2023-12-04T04:45:20;10.70;;;6.70;;
43248;SDS011;29216;51.248;6.808;2023-12-04T04:47:46;11.97;;;7.37;;
43248;SDS011;29216;51.248;6.808;2023-12-04T04:50:12;11.07;;;6.77;;
43248;SDS011;29216;51.248;6.808;2023-12-04T04:52:38;11.38;;;7.05;;
43248;SDS011;29216;51.248;6.808;2023-12-04T04:55:04;9.77;;;6.23;;
43248;SDS011;29216;51.248;6.808;2023-12-04T04:57:30;9.87;;;6.37;;
43248;SDS011;29216;51.248;6.808;2023-12-04T04:59:56;10.07;;;6.78;;
43248;SDS011;29216;51.248;6.808;2023-12-04T05:02:22;12.60;;;7.70;;
43248;SDS011;29216;51.248;6.808;2023-12-04T05:04:48;11.00;;;6.97;;
43248;SDS011;29216;51.248;6.808;2023-12-04T05:07:14;12.10;;;7.60;;
43248;SDS011;29216;51.248;6.808;2023-12-04T05:09:40;10.57;;;6.83;;
43248;SDS011;29216;51.248;6.808;2023-12-04T05:12:06;9.73;;;6.57;;
43248;SDS011;29216;51.248;6.808;2023-12-04T05:14:32;10.77;;;7.50;;
43248;SDS011;29216;51.248;6.808;2023-12-04T05:16:58;13.40;;;8.20;;
43248;SDS011;29216;51.248;6.808;2023-12-04T05:19:24;12.47;;;7.43;;
43248;SDS011;29216;51.248;6.808;2023-12-04T05:21:50;10.50;;;7.17;;
43248;SDS011;29216;51.248;6.808;2023-12-04T05:24:16;13.73;;;8.07;;
43248;SDS011;29216;51.248;6.808;2023-12-04T05:26:42;12.23;;;7.33;;
43248;SDS011;29216;51.248;6.808;2023-12-04T05:29:08;12.10;;;7.83;;
43248;SDS011;29216;51.248;6.808;2023-12-04T05:31:34;12.40;;;7.37;;
43248;SDS011;29216;51.248;6.808;2023-12-04T05:34:00;13.57;;;8.07;;
43248;SDS011;29216;51.248;6.808;2023-12-04T05:36:27;12.37;;;7.80;;
43248;SDS011;29216;51.248;6.808;2023-12-04T05:38:53;11.60;;;7.07;;
43248;SDS011;29216;51.248;6.808;2023-12-04T05:41:19;12.10;;;7.60;;
43248;SDS011;29216;51.248;6.808;2023-12-04T05:43:45;13.50;;;7.80;;
43248;SDS011;29216;51.248;6.808;2023-12-04T05:46:11;12.47;;;7.67;;
43248;SDS011;29216;51.248;6.808;2023-12-04T05:48:36;14.73;;;8.83;;
43248;SDS011;29216;51.248;6.808;2023-12-04T05:51:03;12.23;;;7.53;;
43248;SDS011;29216;51.248;6.808;2023-12-04T05:53:29;12.00;;;8.00;;
43248;SDS011;29216;51.248;6.808;2023-12-04T05:55:55;12.23;;;7.80;;
43248;SDS011;29216;51.248;6.808;2023-12-04T05:58:20;13.80;;;8.07;;
43248;SDS011;29216;51.248;6.808;2023-12-04T06:00:46;11.43;;;7.33;;
43248;SDS011;29216;51.248;6.808;2023-12-04T06:03:12;12.57;;;7.30;;
43248;SDS011;29216;51.248;6.808;2023-12-04T06:05:38;15.02;;;8.48;;
43248;SDS011;29216;51.248;6.808;2023-12-04T06:08:04;12.50;;;7.83;;
43248;SDS011;29216;51.248;6.808;2023-12-04T06:10:30;12.13;;;7.90;;
43248;SDS011;29216;51.248;6.808;2023-12-04T06:12:58;14.17;;;8.07;;
43248;SDS011;29216;51.248;6.808;2023-12-04T06:15:24;16.13;;;8.70;;
43248;SDS011;29216;51.248;6.808;2023-12-04T06:17:50;13.47;;;8.97;;
43248;SDS011;29216;51.248;6.808;2023-12-04T06:20:16;14.73;;;8.63;;
43248;SDS011;29216;51.248;6.808;2023-12-04T06:22:42;15.03;;;8.77;;
43248;SDS011;29216;51.248;6.808;2023-12-04T06:25:08;14.30;;;8.97;;
43248;SDS011;29216;51.248;6.808;2023-12-04T06:27:35;13.73;;;7.70;;
43248;SDS011;29216;51.248;6.808;2023-12-04T06:30:01;12.37;;;7.97;;
43248;SDS011;29216;51.248;6.808;2023-12-04T06:32:27;14.83;;;8.23;;
43248;SDS011;29216;51.248;6.808;2023-12-04T06:34:53;14.13;;;8.97;;
43248;SDS011;29216;51.248;6.808;2023-12-04T06:37:20;13.07;;;8.13;;
43248;SDS011;29216;51.248;6.808;2023-12-04T06:39:46;13.17;;;7.87;;
43248;SDS011;29216;51.248;6.808;2023-12-04T06:42:13;11.70;;;8.23;;
43248;SDS011;29216;51.248;6.808;2023-12-04T06:44:40;16.00;;;9.37;;
43248;SDS011;29216;51.248;6.808;2023-12-04T06:47:07;14.63;;;9.53;;
43248;SDS011;29216;51.248;6.808;2023-12-04T06:49:34;12.38;;;7.90;;
43248;SDS011;29216;51.248;6.808;2023-12-04T06:52:03;13.57;;;8.33;;
43248;SDS011;29216;51.248;6.808;2023-12-04T06:54:29;15.20;;;8.53;;
43248;SDS011;29216;51.248;6.808;2023-12-04T06:56:55;14.67;;;8.67;;
43248;SDS011;29216;51.248;6.808;2023-12-04T06:59:21;13.23;;;8.83;;
43248;SDS011;29216;51.248;6.808;2023-12-04T07:01:47;15.53;;;9.37;;
43248;SDS011;29216;51.248;6.808;2023-12-04T07:04:13;13.87;;;8.67;;
43248;SDS011;29216;51.248;6.808;2023-12-04T07:06:39;14.93;;;8.80;;
43248;SDS011;29216;51.248;6.808;2023-12-04T07:09:06;14.37;;;8.60;;
43248;SDS011;29216;51.248;6.808;2023-12-04T07:11:35;13.97;;;8.50;;
43248;SDS011;29216;51.248;6.808;2023-12-04T07:14:01;14.63;;;8.50;;
43248;SDS011;29216;51.248;6.808;2023-12-04T07:16:27;15.17;;;8.73;;
43248;SDS011;29216;51.248;6.808;2023-12-04T07:18:53;12.30;;;7.77;;
43248;SDS011;29216;51.248;6.808;2023-12-04T07:21:20;13.07;;;7.73;;
43248;SDS011;29216;51.248;6.808;2023-12-04T07:23:46;12.37;;;8.13;;
43248;SDS011;29216;51.248;6.808;2023-12-04T07:26:12;11.23;;;7.90;;
43248;SDS011;29216;51.248;6.808;2023-12-04T07:28:38;11.87;;;7.80;;
43248;SDS011;29216;51.248;6.808;2023-12-04T07:31:04;11.37;;;8.07;;
43248;SDS011;29216;51.248;6.808;2023-12-04T07:33:31;13.03;;;7.87;;
43248;SDS011;29216;51.248;6.808;2023-12-04T07:35:57;14.13;;;8.47;;
43248;SDS011;29216;51.248;6.808;2023-12-04T07:38:23;11.17;;;7.77;;
43248;SDS011;29216;51.248;6.808;2023-12-04T07:40:49;12.27;;;7.97;;
43248;SDS011;29216;51.248;6.808;2023-12-04T07:43:15;11.90;;;7.97;;
43248;SDS011;29216;51.248;6.808;2023-12-04T07:45:41;11.38;;;7.18;;
43248;SDS011;29216;51.248;6.808;2023-12-04T07:48:07;10.45;;;6.95;;
43248;SDS011;29216;51.248;6.808;2023-12-04T07:50:33;12.03;;;7.53;;
43248;SDS011;29216;51.248;6.808;2023-12-04T07:52:59;15.70;;;7.50;;
43248;SDS011;29216;51.248;6.808;2023-12-04T07:55:25;13.70;;;7.85;;
43248;SDS011;29216;51.248;6.808;2023-12-04T07:57:51;11.73;;;7.20;;
43248;SDS011;29216;51.248;6.808;2023-12-04T08:00:17;12.00;;;7.30;;
43248;SDS011;29216;51.248;6.808;2023-12-04T08:02:44;12.40;;;8.05;;
43248;SDS011;29216;51.248;6.808;2023-12-04T08:05:11;10.65;;;6.95;;
43248;SDS011;29216;51.248;6.808;2023-12-04T08:07:37;9.80;;;7.47;;
43248;SDS011;29216;51.248;6.808;2023-12-04T08:10:03;12.77;;;7.60;;
43248;SDS011;29216;51.248;6.808;2023-12-04T08:12:29;11.95;;;7.20;;
43248;SDS011;29216;51.248;6.808;2023-12-04T08:14:55;12.45;;;7.45;;
43248;SDS011;29216;51.248;6.808;2023-12-04T08:17:21;10.98;;;7.10;;
43248;SDS011;29216;51.248;6.808;2023-12-04T08:19:47;11.48;;;6.57;;
43248;SDS011;29216;51.248;6.808;2023-12-04T08:22:13;13.95;;;7.68;;
43248;SDS011;29216;51.248;6.808;2023-12-04T08:24:39;11.80;;;7.32;;
43248;SDS011;29216;51.248;6.808;2023-12-04T08:27:05;10.63;;;6.75;;
43248;SDS011;29216;51.248;6.808;2023-12-04T08:29:32;10.70;;;5.82;;
43248;SDS011;29216;51.248;6.808;2023-12-04T08:31:59;10.33;;;6.93;;
43248;SDS011;29216;51.248;6.808;2023-12-04T08:34:25;11.50;;;7.15;;
43248;SDS011;29216;51.248;6.808;2023-12-04T08:36:51;9.90;;;6.47;;
43248;SDS011;29216;51.248;6.808;2023-12-04T08:39:17;8.75;;;6.47;;
43248;SDS011;29216;51.248;6.808;2023-12-04T08:41:46;10.00;;;6.15;;
43248;SDS011;29216;51.248;6.808;2023-12-04T08:44:12;9.85;;;6.60;;
43248;SDS011;29216;51.248;6.808;2023-12-04T08:46:38;11.13;;;6.68;;
43248;SDS011;29216;51.248;6.808;2023-12-04T08:49:05;10.27;;;6.40;;
43248;SDS011;29216;51.248;6.808;2023-12-04T08:51:31;9.30;;;5.95;;
43248;SDS011;29216;51.248;6.808;2023-12-04T08:53:57;9.27;;;6.35;;
43248;SDS011;29216;51.248;6.808;2023-12-04T08:56:23;9.43;;;5.90;;
43248;SDS011;29216;51.248;6.808;2023-12-04T08:58:49;8.27;;;6.05;;
43248;SDS011;29216;51.248;6.808;2023-12-04T09:01:18;9.68;;;5.53;;
43248;SDS011;29216;51.248;6.808;2023-12-04T09:03:44;8.25;;;5.88;;
43248;SDS011;29216;51.248;6.808;2023-12-04T09:06:10;8.95;;;5.97;;
43248;SDS011;29216;51.248;6.808;2023-12-04T09:08:36;8.85;;;5.82;;
43248;SDS011;29216;51.248;6.808;2023-12-04T09:11:02;8.77;;;5.63;;
43248;SDS011;29216;51.248;6.808;2023-12-04T09:13:28;8.98;;;6.05;;
43248;SDS011;29216;51.248;6.808;2023-12-04T09:15:56;8.80;;;5.82;;
43248;SDS011;29216;51.248;6.808;2023-12-04T09:18:22;7.72;;;5.20;;
43248;SDS011;29216;51.248;6.808;2023-12-04T09:20:48;9.02;;;5.45;;
43248;SDS011;29216;51.248;6.808;2023-12-04T09:23:14;10.88;;;5.90;;
43248;SDS011;29216;51.248;6.808;2023-12-04T09:25:40;10.07;;;5.68;;
43248;SDS011;29216;51.248;6.808;2023-12-04T09:28:06;10.45;;;5.90;;
43248;SDS011;29216;51.248;6.808;2023-12-04T09:30:33;8.25;;;5.47;;
43248;SDS011;29216;51.248;6.808;2023-12-04T09:33:02;9.50;;;5.82;;
43248;SDS011;29216;51.248;6.808;2023-12-04T09:35:28;9.57;;;6.15;;
43248;SDS011;29216;51.248;6.808;2023-12-04T09:37:54;9.43;;;6.25;;
43248;SDS011;29216;51.248;6.808;2023-12-04T09:40:21;9.50;;;5.60;;
43248;SDS011;29216;51.248;6.808;2023-12-04T09:42:47;7.88;;;5.50;;
43248;SDS011;29216;51.248;6.808;2023-12-04T09:45:13;9.75;;;5.30;;
43248;SDS011;29216;51.248;6.808;2023-12-04T09:47:40;8.90;;;4.90;;
43248;SDS011;29216;51.248;6.808;2023-12-04T09:50:06;14.55;;;6.28;;
43248;SDS011;29216;51.248;6.808;2023-12-04T09:52:34;10.35;;;6.25;;
43248;SDS011;29216;51.248;6.808;2023-12-04T09:55:03;8.68;;;5.13;;
43248;SDS011;29216;51.248;6.808;2023-12-04T09:57:30;7.50;;;5.10;;
43248;SDS011;29216;51.248;6.808;2023-12-04T09:59:56;12.07;;;5.93;;
43248;SDS011;29216;51.248;6.808;2023-12-04T10:02:24;7.07;;;5.30;;
43248;SDS011;29216;51.248;6.808;2023-12-04T10:04:50;7.82;;;5.43;;
43248;SDS011;29216;51.248;6.808;2023-12-04T10:07:17;8.57;;;5.60;;
43248;SDS011;29216;51.248;6.808;2023-12-04T10:09:43;9.75;;;5.72;;
43248;SDS011;29216;51.248;6.808;2023-12-04T10:12:09;9.48;;;6.25;;
43248;SDS011;29216;51.248;6.808;2023-12-04T10:14:35;8.27;;;5.30;;
43248;SDS011;29216;51.248;6.808;2023-12-04T10:17:13;9.65;;;5.93;;
43248;SDS011;29216;51.248;6.808;2023-12-04T10:19:39;9.27;;;6.00;;
43248;SDS011;29216;51.248;6.808;2023-12-04T10:22:05;9.55;;;5.25;;
43248;SDS011;29216;51.248;6.808;2023-12-04T10:24:36;7.97;;;5.47;;
43248;SDS011;29216;51.248;6.808;2023-12-04T10:27:03;9.10;;;5.47;;
43248;SDS011;29216;51.248;6.808;2023-12-04T10:29:40;9.45;;;5.85;;
43248;SDS011;29216;51.248;6.808;2023-12-04T10:32:07;10.80;;;6.25;;
43248;SDS011;29216;51.248;6.808;2023-12-04T10:34:33;8.10;;;5.10;;
43248;SDS011;29216;51.248;6.808;2023-12-04T10:37:00;9.07;;;5.80;;
43248;SDS011;29216;51.248;6.808;2023-12-04T10:39:26;8.68;;;5.80;;
43248;SDS011;29216;51.248;6.808;2023-12-04T10:42:02;8.77;;;5.53;;
43248;SDS011;29216;51.248;6.808;2023-12-04T10:44:29;9.15;;;5.40;;
43248;SDS011;29216;51.248;6.808;2023-12-04T10:46:57;10.38;;;5.63;;
43248;SDS011;29216;51.248;6.808;2023-12-04T10:49:27;8.98;;;5.60;;
43248;SDS011;29216;51.248;6.808;2023-12-04T10:51:55;10.25;;;5.90;;
43248;SDS011;29216;51.248;6.808;2023-12-04T10:54:22;8.27;;;5.35;;
43248;SDS011;29216;51.248;6.808;2023-12-04T10:56:48;9.20;;;5.68;;
43248;SDS011;29216;51.248;6.808;2023-12-04T10:59:17;7.65;;;5.30;;
43248;SDS011;29216;51.248;6.808;2023-12-04T11:01:44;11.13;;;6.10;;
43248;SDS011;29216;51.248;6.808;2023-12-04T11:04:14;7.93;;;5.97;;
43248;SDS011;29216;51.248;6.808;2023-12-04T11:06:42;8.93;;;5.70;;
43248;SDS011;29216;51.248;6.808;2023-12-04T11:09:11;8.95;;;5.47;;
43248;SDS011;29216;51.248;6.808;2023-12-04T11:11:39;7.63;;;5.22;;
43248;SDS011;29216;51.248;6.808;2023-12-04T11:14:06;8.73;;;5.93;;
43248;SDS011;29216;51.248;6.808;2023-12-04T11:16:34;8.73;;;5.80;;
43248;SDS011;29216;51.248;6.808;2023-12-04T11:19:06;8.05;;;5.60;;
43248;SDS011;29216;51.248;6.808;2023-12-04T11:21:37;8.98;;;6.03;;
43248;SDS011;29216;51.248;6.808;2023-12-04T11:24:05;8.48;;;5.95;;
43248;SDS011;29216;51.248;6.808;2023-12-04T11:26:31;10.05;;;6.53;;
43248;SDS011;29216;51.248;6.808;2023-12-04T11:28:57;10.95;;;6.35;;
43248;SDS011;29216;51.248;6.808;2023-12-04T11:31:24;10.68;;;7.07;;
43248;SDS011;29216;51.248;6.808;2023-12-04T11:33:51;12.13;;;6.50;;
43248;SDS011;29216;51.248;6.808;2023-12-04T11:36:17;9.18;;;6.47;;
43248;SDS011;29216;51.248;6.808;2023-12-04T11:38:44;10.27;;;6.88;;
43248;SDS011;29216;51.248;6.808;2023-12-04T11:41:30;8.98;;;6.10;;
43248;SDS011;29216;51.248;6.808;2023-12-04T11:46:22;10.60;;;7.00;;
43248;SDS011;29216;51.248;6.808;2023-12-04T11:48:55;11.65;;;6.20;;
43248;SDS011;29216;51.248;6.808;2023-12-04T11:54:08;10.27;;;6.78;;
43248;SDS011;29216;51.248;6.808;2023-12-04T11:56:35;10.25;;;6.70;;
43248;SDS011;29216;51.248;6.808;2023-12-04T11:59:04;12.18;;;6.93;;
43248;SDS011;29216;51.248;6.808;2023-12-04T12:01:35;10.27;;;6.90;;
43248;SDS011;29216;51.248;6.808;2023-12-04T12:04:04;9.05;;;6.13;;
43248;SDS011;29216;51.248;6.808;2023-12-04T12:06:30;10.23;;;7.10;;
43248;SDS011;29216;51.248;6.808;2023-12-04T12:08:56;13.90;;;7.40;;
43248;SDS011;29216;51.248;6.808;2023-12-04T12:11:25;12.93;;;8.10;;
43248;SDS011;29216;51.248;6.808;2023-12-04T12:13:54;11.43;;;7.72;;
43248;SDS011;29216;51.248;6.808;2023-12-04T12:16:21;10.73;;;7.13;;
43248;SDS011;29216;51.248;6.808;2023-12-04T12:18:47;11.30;;;6.68;;
43248;SDS011;29216;51.248;6.808;2023-12-04T12:21:13;11.90;;;7.60;;
43248;SDS011;29216;51.248;6.808;2023-12-04T12:23:39;11.38;;;7.57;;
43248;SDS011;29216;51.248;6.808;2023-12-04T12:26:06;10.48;;;6.82;;
43248;SDS011;29216;51.248;6.808;2023-12-04T12:28:32;13.00;;;7.53;;
43248;SDS011;29216;51.248;6.808;2023-12-04T12:31:01;12.77;;;7.88;;
43248;SDS011;29216;51.248;6.808;2023-12-04T12:33:28;13.70;;;7.78;;
43248;SDS011;29216;51.248;6.808;2023-12-04T12:35:56;13.82;;;7.65;;
43248;SDS011;29216;51.248;6.808;2023-12-04T12:38:22;10.68;;;6.97;;
43248;SDS011;29216;51.248;6.808;2023-12-04T12:40:48;10.45;;;7.38;;
43248;SDS011;29216;51.248;6.808;2023-12-04T12:43:14;12.10;;;7.18;;
43248;SDS011;29216;51.248;6.808;2023-12-04T12:48:10;14.25;;;7.43;;
43248;SDS011;29216;51.248;6.808;2023-12-04T12:50:36;12.00;;;6.85;;
43248;SDS011;29216;51.248;6.808;2023-12-04T12:53:02;11.38;;;7.45;;
43248;SDS011;29216;51.248;6.808;2023-12-04T12:55:28;11.20;;;7.40;;
43248;SDS011;29216;51.248;6.808;2023-12-04T12:57:57;13.93;;;7.38;;
43248;SDS011;29216;51.248;6.808;2023-12-04T13:00:23;11.40;;;7.15;;
43248;SDS011;29216;51.248;6.808;2023-12-04T13:02:53;10.30;;;7.32;;
43248;SDS011;29216;51.248;6.808;2023-12-04T13:05:19;12.70;;;7.43;;
43248;SDS011;29216;51.248;6.808;2023-12-04T13:07:45;10.93;;;7.22;;
43248;SDS011;29216;51.248;6.808;2023-12-04T13:10:11;11.32;;;7.13;;
43248;SDS011;29216;51.248;6.808;2023-12-04T13:12:37;10.98;;;7.07;;
43248;SDS011;29216;51.248;6.808;2023-12-04T13:15:03;12.20;;;7.13;;
43248;SDS011;29216;51.248;6.808;2023-12-04T13:17:30;10.80;;;6.90;;
43248;SDS011;29216;51.248;6.808;2023-12-04T13:19:56;10.10;;;6.50;;
43248;SDS011;29216;51.248;6.808;2023-12-04T13:22:23;10.10;;;6.30;;
43248;SDS011;29216;51.248;6.808;2023-12-04T13:24:49;10.07;;;6.90;;
43248;SDS011;29216;51.248;6.808;2023-12-04T13:27:15;10.27;;;6.80;;
43248;SDS011;29216;51.248;6.808;2023-12-04T13:29:41;11.25;;;6.50;;
43248;SDS011;29216;51.248;6.808;2023-12-04T13:32:07;10.77;;;6.90;;
43248;SDS011;29216;51.248;6.808;2023-12-04T13:34:33;11.15;;;6.70;;
43248;SDS011;29216;51.248;6.808;2023-12-04T13:36:59;9.90;;;6.43;;
43248;SDS011;29216;51.248;6.808;2023-12-04T13:39:25;11.60;;;7.03;;
43248;SDS011;29216;51.248;6.808;2023-12-04T13:42:10;12.30;;;6.55;;
43248;SDS011;29216;51.248;6.808;2023-12-04T13:47:20;7.95;;;5.68;;
43248;SDS011;29216;51.248;6.808;2023-12-04T13:49:46;10.20;;;6.25;;
43248;SDS011;29216;51.248;6.808;2023-12-04T13:52:14;9.88;;;5.90;;
43248;SDS011;29216;51.248;6.808;2023-12-04T13:54:40;10.82;;;6.32;;
43248;SDS011;29216;51.248;6.808;2023-12-04T13:57:09;8.90;;;5.90;;
43248;SDS011;29216;51.248;6.808;2023-12-04T14:02:09;9.05;;;6.05;;
43248;SDS011;29216;51.248;6.808;2023-12-04T14:04:37;7.88;;;5.80;;
43248;SDS011;29216;51.248;6.808;2023-12-04T14:07:04;10.43;;;6.30;;
43248;SDS011;29216;51.248;6.808;2023-12-04T14:09:33;9.35;;;6.10;;
43248;SDS011;29216;51.248;6.808;2023-12-04T14:12:00;12.57;;;6.55;;
43248;SDS011;29216;51.248;6.808;2023-12-04T14:14:26;8.82;;;6.18;;
43248;SDS011;29216;51.248;6.808;2023-12-04T14:16:52;9.75;;;5.88;;
43248;SDS011;29216;51.248;6.808;2023-12-04T14:19:18;8.73;;;5.68;;
43248;SDS011;29216;51.248;6.808;2023-12-04T14:21:46;7.63;;;5.55;;
43248;SDS011;29216;51.248;6.808;2023-12-04T14:24:15;10.05;;;5.93;;
43248;SDS011;29216;51.248;6.808;2023-12-04T14:26:45;10.95;;;6.43;;
43248;SDS011;29216;51.248;6.808;2023-12-04T14:29:11;8.30;;;5.43;;
43248;SDS011;29216;51.248;6.808;2023-12-04T14:31:38;9.15;;;5.70;;
43248;SDS011;29216;51.248;6.808;2023-12-04T14:34:05;8.30;;;5.13;;
43248;SDS011;29216;51.248;6.808;2023-12-04T14:36:31;6.85;;;4.90;;
43248;SDS011;29216;51.248;6.808;2023-12-04T14:38:57;6.80;;;4.85;;
43248;SDS011;29216;51.248;6.808;2023-12-04T14:41:27;8.75;;;5.20;;
43248;SDS011;29216;51.248;6.808;2023-12-04T14:43:53;6.70;;;5.00;;